Time;durP1;ratioP1;P1;durP2;ratioP2;P2;SDS_P1;SDS_P2;PMS_P1;PMS_P2;Temp;Humidity;BMP_temperature;BMP_pressure;BME280_temperature;BME280_humidity;BME280_pressure;Samples;Min_cycle;Max_cycle;Signal;HPM_P1;HPM_P2
2021/07/04 00:00:51;;;;;;;4.93;4.47;;;23.20;98.10;;;;;;4924236;29;20487;-79
2021/07/04 00:03:33;;;;;;;4.93;4.50;;;23.20;98.10;;;;;;4936541;28;20557;-78
2021/07/04 00:05:59;;;;;;;4.53;4.13;;;23.30;98.20;;;;;;4944527;28;20488;-77
2021/07/04 00:08:25;;;;;;;4.63;4.23;;;23.30;98.20;;;;;;4943000;28;20461;-78
2021/07/04 00:10:58;;;;;;;4.63;4.20;;;23.20;98.20;;;;;;4948055;28;20350;-78
2021/07/04 00:13:37;;;;;;;4.43;4.00;;;23.20;98.30;;;;;;4955121;28;20516;-78
2021/07/04 00:16:09;;;;;;;5.30;4.80;;;23.20;98.30;;;;;;4995681;28;20834;-78
2021/07/04 00:22:25;;;;;;;5.00;4.50;;;23.20;98.30;;;;;;4985341;28;20463;-78
2021/07/04 00:25:28;;;;;;;4.77;4.27;;;23.20;98.40;;;;;;4974262;28;20437;-77
2021/07/04 00:28:11;;;;;;;4.77;4.37;;;23.20;98.70;;;;;;4939610;28;20462;-79
2021/07/04 00:35:21;;;;;;;;;;;;;;;;;;;;;
2021/07/04 00:38:42;;;;;;;5.83;4.30;;;23.10;98.70;;;;;;4962771;28;20871;-78
2021/07/04 00:41:14;;;;;;;5.30;4.80;;;23.10;98.70;;;;;;4960645;28;20457;-78
2021/07/04 00:43:42;;;;;;;4.80;4.33;;;23.10;98.80;;;;;;4952581;28;20453;-78
2021/07/04 00:50:04;;;;;;;4.33;4.00;;;23.10;98.90;;;;;;4949251;28;20844;-78
2021/07/04 00:52:30;;;;;;;4.70;4.30;;;23.10;99.00;;;;;;4941132;28;20462;-78
2021/07/04 00:55:57;;;;;;;5.83;5.27;;;23.10;99.10;;;;;;4989783;28;20448;-80
2021/07/04 00:58:27;;;;;;;5.17;4.67;;;22.90;99.40;;;;;;4906773;29;20455;-80
2021/07/04 01:11:02;;;;;;;4.33;3.93;;;22.90;99.40;;;;;;5000815;28;20458;-79
2021/07/04 01:13:50;;;;;;;4.80;4.40;;;22.90;99.50;;;;;;5017393;28;20472;-79
2021/07/04 01:16:17;;;;;;;4.53;4.10;;;22.90;99.50;;;;;;4983855;28;20464;-79
2021/07/04 01:19:13;;;;;;;4.27;3.97;;;22.90;99.60;;;;;;4964711;28;20433;-79
2021/07/04 01:21:43;;;;;;;5.13;4.63;;;22.90;99.60;;;;;;5053107;23;21154;-79
2021/07/04 01:25:07;;;;;;;4.90;4.40;;;22.90;99.70;;;;;;5034035;28;20438;-79
2021/07/04 01:31:23;;;;;;;5.30;4.90;;;22.80;99.70;;;;;;4940047;29;20583;-78
2021/07/04 01:34:07;;;;;;;4.93;4.53;;;22.80;99.80;;;;;;4924222;29;20466;-80
2021/07/04 01:40:14;;;;;;;4.47;4.03;;;22.70;99.90;;;;;;4928638;29;20473;-80
2021/07/04 01:42:42;;;;;;;6.00;4.60;;;22.70;99.90;;;;;;4921012;29;21024;-79
2021/07/04 01:45:21;;;;;;;5.17;4.70;;;22.60;99.90;;;;;;4994046;28;20449;-78
2021/07/04 01:47:49;;;;;;;4.37;3.97;;;22.60;99.90;;;;;;5017395;28;20461;-79
2021/07/04 01:50:21;;;;;;;4.63;4.03;;;22.60;99.90;;;;;;5026139;28;21016;-78
2021/07/04 01:57:11;;;;;;;4.90;4.50;;;22.60;99.90;;;;;;5035048;28;20588;-79
2021/07/04 01:59:44;;;;;;;5.13;4.30;;;22.60;99.90;;;;;;5011758;28;20427;-79
2021/07/04 02:02:30;;;;;;;4.57;4.13;;;22.60;99.90;;;;;;5033566;28;20415;-79
2021/07/04 02:04:58;;;;;;;4.87;4.47;;;22.60;99.90;;;;;;4983312;28;20449;-79
2021/07/04 02:07:25;;;;;;;4.50;4.10;;;22.60;99.90;;;;;;4976586;28;20560;-79
2021/07/04 02:09:56;;;;;;;5.87;5.23;;;22.50;99.90;;;;;;5016112;28;20467;-79
2021/07/04 02:12:31;;;;;;;5.10;4.30;;;22.50;99.90;;;;;;5025483;28;20536;-79
2021/07/04 02:14:57;;;;;;;5.23;4.33;;;22.50;99.90;;;;;;5014711;28;20902;-79
2021/07/04 02:21:54;;;;;;;4.77;4.27;;;22.50;99.90;;;;;;4991549;28;20491;-79
2021/07/04 02:24:26;;;;;;;5.97;4.00;;;22.40;99.90;;;;;;5038631;28;21173;-79
2021/07/04 02:26:56;;;;;;;6.70;4.97;;;22.40;99.90;;;;;;5048558;28;20452;-80
2021/07/04 02:36:04;;;;;;;5.10;4.50;;;22.40;99.90;;;;;;5041706;28;20539;-80
2021/07/04 02:38:32;;;;;;;5.30;4.80;;;22.40;99.90;;;;;;5013951;28;20448;-79
2021/07/04 02:40:59;;;;;;;5.17;4.67;;;22.40;99.90;;;;;;4992240;28;20460;-79
2021/07/04 02:43:34;;;;;;;5.43;4.93;;;22.30;99.90;;;;;;4982376;28;20526;-79
2021/07/04 02:46:04;;;;;;;4.90;4.40;;;22.40;99.90;;;;;;5002138;28;20716;-80
2021/07/04 02:48:30;;;;;;;4.40;4.00;;;22.40;99.90;;;;;;4981705;28;20467;-80
2021/07/04 02:50:57;;;;;;;5.93;4.73;;;22.30;99.90;;;;;;4997961;28;20221;-80
2021/07/04 02:53:29;;;;;;;4.20;3.80;;;22.30;99.90;;;;;;4979709;28;20452;-80
2021/07/04 02:55:59;;;;;;;5.57;4.90;;;22.30;99.90;;;;;;4981012;28;20468;-79
2021/07/04 02:58:31;;;;;;;5.80;5.30;;;22.30;99.90;;;;;;4994759;28;21007;-80
2021/07/04 03:03:54;;;;;;;5.33;4.67;;;22.30;99.90;;;;;;5010916;28;20547;-79
2021/07/04 03:06:21;;;;;;;5.50;4.53;;;22.30;99.90;;;;;;5024791;28;20528;-79
2021/07/04 03:08:48;;;;;;;4.93;4.53;;;22.30;99.90;;;;;;4988131;28;20495;-79
2021/07/04 03:11:18;;;;;;;4.73;4.27;;;22.20;99.90;;;;;;4980105;28;20471;-79
2021/07/04 03:14:00;;;;;;;5.00;4.50;;;22.30;99.90;;;;;;5002074;28;20450;-79
2021/07/04 03:16:26;;;;;;;5.60;5.10;;;22.30;99.90;;;;;;5009650;28;20559;-78
2021/07/04 03:19:36;;;;;;;4.90;4.50;;;22.20;99.90;;;;;;4983560;28;20490;-79
2021/07/04 03:22:04;;;;;;;5.30;4.87;;;22.20;99.90;;;;;;5014826;28;20205;-79
2021/07/04 03:24:31;;;;;;;5.30;4.80;;;22.20;99.90;;;;;;4989673;28;20968;-78
2021/07/04 03:27:16;;;;;;;5.40;4.90;;;22.20;99.90;;;;;;4991985;28;20485;-78
2021/07/04 03:32:21;;;;;;;5.10;4.70;;;22.20;99.90;;;;;;4928863;28;20493;-78
2021/07/04 03:38:29;;;;;;;5.40;4.90;;;22.20;99.90;;;;;;4898905;29;20789;-78
2021/07/04 03:41:11;;;;;;;5.30;4.80;;;22.10;99.90;;;;;;4915712;29;20643;-78
2021/07/04 03:51:33;;;;;;;4.67;4.07;;;22.10;99.90;;;;;;4818758;29;20468;-78
2021/07/04 03:54:15;;;;;;;6.10;5.10;;;22.10;99.90;;;;;;4847836;29;20506;-78
2021/07/04 03:57:23;;;;;;;5.67;5.00;;;22.10;99.90;;;;;;4939499;28;20484;-78
2021/07/04 04:00:33;;;;;;;5.43;4.93;;;22.00;99.90;;;;;;4995815;23;20927;-78
2021/07/04 04:03:16;;;;;;;5.57;5.07;;;22.00;99.90;;;;;;4993819;28;20889;-80
2021/07/04 04:05:48;;;;;;;5.90;5.03;;;22.00;99.90;;;;;;4996785;28;20440;-78
2021/07/04 04:11:49;;;;;;;5.67;4.83;;;22.00;99.90;;;;;;5032690;28;20646;-78
2021/07/04 04:14:37;;;;;;;5.17;4.67;;;21.90;99.90;;;;;;5004159;28;20467;-78
2021/07/04 04:17:14;;;;;;;4.77;4.37;;;21.90;99.90;;;;;;4991115;28;20578;-78
2021/07/04 04:19:55;;;;;;;5.17;4.67;;;21.90;99.90;;;;;;4978098;28;20444;-78
2021/07/04 04:33:43;;;;;;;5.30;4.80;;;21.90;99.90;;;;;;5031699;28;20442;-78
2021/07/04 04:36:09;;;;;;;6.77;5.07;;;21.90;99.90;;;;;;4984770;28;20480;-77
2021/07/04 04:39:02;;;;;;;5.67;5.03;;;21.90;99.90;;;;;;4986253;28;20519;-78
2021/07/04 04:41:55;;;;;;;5.70;5.20;;;21.90;99.90;;;;;;5027744;28;20229;-78
2021/07/04 04:44:49;;;;;;;5.33;4.83;;;21.90;99.90;;;;;;4952512;28;20502;-78
2021/07/04 04:47:31;;;;;;;5.37;4.90;;;21.80;99.90;;;;;;4889139;29;20495;-78
2021/07/04 04:49:56;;;;;;;5.10;4.50;;;21.80;99.90;;;;;;4904792;29;20554;-78
2021/07/04 04:52:28;;;;;;;7.00;5.00;;;21.80;99.90;;;;;;4992116;28;20503;-78
2021/07/04 04:54:56;;;;;;;5.97;5.37;;;21.80;99.90;;;;;;4980810;28;20304;-78
2021/07/04 04:57:21;;;;;;;5.47;4.97;;;21.80;99.90;;;;;;4995840;28;20535;-77
2021/07/04 04:59:58;;;;;;;5.23;4.80;;;21.80;99.90;;;;;;4994474;28;20212;-78
2021/07/04 05:02:24;;;;;;;5.57;5.07;;;21.80;99.90;;;;;;5013857;28;20195;-78
2021/07/04 05:04:50;;;;;;;5.50;5.10;;;21.70;99.90;;;;;;4965426;28;20452;-78
2021/07/04 05:07:16;;;;;;;4.80;4.30;;;21.70;99.90;;;;;;4977334;28;20200;-78
2021/07/04 05:10:17;;;;;;;6.10;5.60;;;21.70;99.90;;;;;;4987841;28;20225;-78
2021/07/04 05:12:51;;;;;;;4.63;4.20;;;21.70;99.90;;;;;;4959693;28;20465;-78
2021/07/04 05:15:26;;;;;;;5.23;4.73;;;21.70;99.90;;;;;;4980262;28;20995;-78
2021/07/04 05:17:52;;;;;;;5.63;4.93;;;21.70;99.90;;;;;;4981295;28;20443;-78
2021/07/04 05:20:24;;;;;;;5.53;5.03;;;21.70;99.90;;;;;;4997303;28;20468;-78
2021/07/04 05:23:09;;;;;;;4.83;4.43;;;21.70;99.90;;;;;;4972330;28;20217;-78
2021/07/04 05:32:20;;;;;;;4.97;4.57;;;21.70;99.90;;;;;;5023911;28;20531;-78
2021/07/04 05:35:46;;;;;;;5.27;4.77;;;21.70;99.90;;;;;;4952939;28;20525;-78
2021/07/04 05:38:35;;;;;;;4.90;4.13;;;21.70;99.90;;;;;;4883104;29;20442;-78
2021/07/04 05:51:58;;;;;;;5.43;4.93;;;21.80;99.90;;;;;;4927493;29;20459;-79
2021/07/04 05:54:30;;;;;;;5.63;5.07;;;21.80;99.90;;;;;;4907236;29;20579;-79
2021/07/04 05:57:13;;;;;;;5.77;5.20;;;21.80;99.90;;;;;;4929895;29;20491;-79
2021/07/04 06:02:07;;;;;;;5.83;5.23;;;21.80;99.90;;;;;;5008801;28;20960;-79
2021/07/04 06:16:09;;;;;;;4.60;4.20;;;21.90;99.90;;;;;;4961680;28;20532;-80
2021/07/04 06:27:06;;;;;;;5.53;5.00;;;21.90;99.90;;;;;;4974792;28;20402;-79
2021/07/04 06:32:53;;;;;;;8.23;5.13;;;21.90;99.90;;;;;;5025965;28;20610;-80
2021/07/04 06:35:27;;;;;;;6.80;5.40;;;21.90;99.90;;;;;;5009471;28;20466;-80
2021/07/04 06:38:30;;;;;;;5.17;4.77;;;21.90;99.90;;;;;;4997070;28;20940;-81
2021/07/04 06:40:56;;;;;;;6.47;5.83;;;21.90;99.90;;;;;;4999903;28;20460;-80
2021/07/04 06:44:03;;;;;;;6.30;5.70;;;21.80;99.90;;;;;;4941675;28;20549;-80
2021/07/04 06:46:29;;;;;;;6.93;5.53;;;21.80;99.90;;;;;;4978558;28;20299;-79
2021/07/04 06:48:58;;;;;;;6.03;5.43;;;21.90;99.90;;;;;;4984066;28;20440;-80
2021/07/04 06:52:03;;;;;;;5.27;4.80;;;21.90;99.90;;;;;;5042291;23;20721;-80
2021/07/04 06:54:58;;;;;;;6.00;5.50;;;21.90;99.90;;;;;;4978257;28;20948;-79
2021/07/04 06:57:55;;;;;;;5.40;4.90;;;21.90;99.90;;;;;;4922930;28;20497;-79
2021/07/04 07:00:36;;;;;;;6.73;6.03;;;21.90;99.90;;;;;;5109656;23;20549;-79
2021/07/04 07:03:42;;;;;;;6.80;6.20;;;21.90;99.90;;;;;;5039231;28;20446;-79
2021/07/04 07:06:08;;;;;;;6.10;5.50;;;22.00;99.90;;;;;;5015974;28;20439;-79
2021/07/04 07:08:50;;;;;;;5.93;5.33;;;22.00;99.90;;;;;;4991480;28;20467;-79
2021/07/04 07:11:42;;;;;;;5.73;5.10;;;22.00;99.90;;;;;;5019910;23;20240;-80
2021/07/04 07:14:08;;;;;;;7.53;5.20;;;22.10;99.90;;;;;;4952232;29;20606;-79
2021/07/04 07:28:39;;;;;;;;;;;;;;;;;;;;;
2021/07/04 07:32:05;;;;;;;6.00;5.40;;;22.20;99.90;;;;;;4943030;28;20518;-79
2021/07/04 07:35:08;;;;;;;5.33;4.80;;;22.20;99.90;;;;;;4932682;29;20442;-79
2021/07/04 07:45:25;;;;;;;5.73;5.23;;;22.40;99.90;;;;;;4946930;28;20417;-79
2021/07/04 07:55:34;;;;;;;6.87;5.80;;;22.50;99.90;;;;;;5032507;28;20485;-79
2021/07/04 08:08:31;;;;;;;5.50;5.00;;;22.70;99.90;;;;;;5018710;28;20423;-81
2021/07/04 08:38:16;;;;;;;7.20;6.50;;;23.20;99.90;;;;;;5868427;23;20498;-80
2021/07/04 08:46:15;;;;;;;6.83;5.17;;;23.30;99.90;;;;;;4971505;28;20461;-80
2021/07/04 08:48:45;;;;;;;6.17;5.60;;;23.40;99.90;;;;;;4964181;28;20488;-80
2021/07/04 09:03:28;;;;;;;7.37;6.63;;;23.80;99.90;;;;;;4989527;28;20444;-80
2021/07/04 09:19:16;;;;;;;5.93;5.43;;;24.10;99.90;;;;;;5027565;28;20421;-80
2021/07/04 09:22:03;;;;;;;5.80;5.30;;;24.10;99.90;;;;;;5030429;28;20841;-80
2021/07/04 09:32:40;;;;;;;5.27;4.87;;;24.40;99.90;;;;;;4935962;29;20581;-81
2021/07/04 09:43:47;;;;;;;5.30;4.57;;;24.70;99.90;;;;;;4891692;29;20545;-80
2021/07/04 09:46:26;;;;;;;6.13;5.53;;;24.80;99.90;;;;;;4873155;29;20467;-80
2021/07/04 09:49:47;;;;;;;7.87;5.70;;;24.80;99.90;;;;;;4866409;29;20532;-80
2021/07/04 09:52:22;;;;;;;5.33;4.73;;;24.80;99.90;;;;;;4862103;29;20558;-79
2021/07/04 09:55:08;;;;;;;7.00;5.77;;;24.80;99.90;;;;;;4893037;29;21021;-78
2021/07/04 09:58:20;;;;;;;6.00;5.50;;;24.80;99.90;;;;;;4890382;29;20448;-79
2021/07/04 10:01:40;;;;;;;6.17;5.60;;;24.80;99.90;;;;;;4988098;23;20492;-79
2021/07/04 10:04:26;;;;;;;6.33;5.77;;;24.80;99.90;;;;;;4958781;28;20425;-79
2021/07/04 10:11:43;;;;;;;5.87;5.37;;;24.70;99.90;;;;;;4990601;28;20431;-78
2021/07/04 10:14:13;;;;;;;5.87;5.10;;;24.50;99.90;;;;;;4963482;28;20819;-78
2021/07/04 10:16:43;;;;;;;5.47;5.07;;;24.50;99.90;;;;;;4957387;28;20856;-79
2021/07/04 10:22:07;;;;;;;4.10;3.70;;;24.40;99.90;;;;;;4932909;29;20485;-79
2021/07/04 10:42:58;;;;;;;1.93;1.83;;;23.30;99.90;;;;;;5001179;28;20590;-79
2021/07/04 10:45:44;;;;;;;2.30;1.90;;;23.40;99.90;;;;;;4977034;28;20561;-79
2021/07/04 10:56:37;;;;;;;4.70;2.03;;;23.40;99.90;;;;;;4979845;28;20478;-78
2021/07/04 10:59:56;;;;;;;7.10;2.40;;;23.20;99.90;;;;;;4911102;29;20447;-79
2021/07/04 11:03:16;;;;;;;2.90;2.20;;;23.00;99.90;;;;;;4914179;29;20514;-79
2021/07/04 11:10:02;;;;;;;2.17;2.00;;;22.90;99.90;;;;;;4933465;29;20524;-79
2021/07/04 11:16:25;;;;;;;4.50;2.30;;;22.80;99.90;;;;;;4937393;28;20595;-79
2021/07/04 11:19:38;;;;;;;3.03;2.73;;;22.80;99.90;;;;;;5002450;28;20468;-80
2021/07/04 11:22:06;;;;;;;3.03;2.73;;;22.70;99.90;;;;;;5011820;28;20583;-80
2021/07/04 11:25:26;;;;;;;2.83;2.63;;;22.60;99.90;;;;;;4974534;28;20942;-80
2021/07/04 11:28:29;;;;;;;5.40;2.97;;;22.50;99.90;;;;;;4923676;28;20576;-80
2021/07/04 11:31:34;;;;;;;6.03;3.80;;;22.50;99.90;;;;;;4985650;28;20448;-80
2021/07/04 11:34:09;;;;;;;3.90;3.57;;;22.50;99.90;;;;;;4990844;28;20463;-80
2021/07/04 11:36:35;;;;;;;4.07;3.23;;;22.40;99.90;;;;;;4983258;28;20488;-80
2021/07/04 11:39:09;;;;;;;3.57;3.27;;;22.40;99.90;;;;;;4964483;28;20460;-80
2021/07/04 11:42:17;;;;;;;3.90;3.40;;;22.30;99.90;;;;;;4971950;28;20546;-79
2021/07/04 11:45:22;;;;;;;3.20;2.47;;;22.30;99.90;;;;;;4925194;28;20434;-78
2021/07/04 11:51:57;;;;;;;4.83;2.53;;;22.00;99.90;;;;;;4900992;28;20471;-79
2021/07/04 11:58:11;;;;;;;2.63;2.03;;;21.40;99.90;;;;;;4994209;28;20504;-79
2021/07/04 12:06:12;;;;;;;2.50;1.80;;;20.80;99.90;;;;;;5011257;28;20475;-78
2021/07/04 12:16:09;;;;;;;1.47;1.37;;;20.50;99.90;;;;;;5002610;28;21037;-78
2021/07/04 12:19:02;;;;;;;2.67;1.60;;;20.30;99.90;;;;;;5011623;28;20443;-78
2021/07/04 12:21:41;;;;;;;1.80;1.67;;;20.30;99.90;;;;;;4984799;28;20558;-78
2021/07/04 12:24:42;;;;;;;1.80;1.40;;;20.30;99.90;;;;;;4961212;28;21000;-78
2021/07/04 12:27:14;;;;;;;1.53;1.23;;;20.10;99.90;;;;;;4982675;28;20466;-78
2021/07/04 12:30:00;;;;;;;1.47;1.37;;;20.10;99.90;;;;;;5004806;28;20789;-79
2021/07/04 12:32:35;;;;;;;1.37;1.27;;;20.00;99.90;;;;;;5009862;28;20464;-78
2021/07/04 12:38:19;;;;;;;1.23;1.10;;;20.10;99.90;;;;;;4961524;28;20853;-78
2021/07/04 12:41:55;;;;;;;0.80;0.80;;;20.10;99.90;;;;;;5005854;28;20482;-79
2021/07/04 12:44:32;;;;;;;4.80;1.20;;;20.10;99.90;;;;;;4997210;28;20455;-79
2021/07/04 12:47:06;;;;;;;1.00;0.90;;;20.00;99.90;;;;;;4969565;28;20453;-78
2021/07/04 12:50:00;;;;;;;0.90;0.90;;;20.00;99.90;;;;;;4971125;28;20494;-78
2021/07/04 12:52:33;;;;;;;0.90;0.90;;;20.10;99.90;;;;;;4984126;28;20444;-79
2021/07/04 12:55:53;;;;;;;2.40;0.77;;;20.10;99.90;;;;;;4986940;28;20488;-78
2021/07/04 13:01:43;;;;;;;0.97;0.87;;;20.20;99.90;;;;;;4984771;28;20488;-79
2021/07/04 13:04:25;;;;;;;0.90;0.90;;;20.20;99.90;;;;;;4966973;28;21452;-79
2021/07/04 13:07:31;;;;;;;1.03;0.77;;;20.20;99.90;;;;;;4952726;28;20812;-78
2021/07/04 13:10:10;;;;;;;0.73;0.73;;;20.30;99.90;;;;;;4978284;28;20499;-78
2021/07/04 13:16:16;;;;;;;0.77;0.73;;;20.40;99.90;;;;;;4956098;28;20479;-78
2021/07/04 13:22:56;;;;;;;1.00;0.93;;;20.60;99.90;;;;;;5011037;28;20232;-78
2021/07/04 13:39:32;;;;;;;1.10;1.03;;;20.90;99.90;;;;;;4949977;28;20472;-78
2021/07/04 13:45:56;;;;;;;1.07;0.97;;;21.00;99.90;;;;;;4968058;28;20453;-79
2021/07/04 13:48:32;;;;;;;1.40;1.30;;;21.10;99.90;;;;;;4953724;28;20475;-78
2021/07/04 13:51:07;;;;;;;1.00;1.00;;;21.10;99.90;;;;;;4975542;23;20824;-78
2021/07/04 13:58:39;;;;;;;1.30;1.03;;;21.20;99.90;;;;;;4988631;28;21045;-78
2021/07/04 14:01:08;;;;;;;1.53;1.00;;;21.20;99.90;;;;;;4990565;28;20509;-78
2021/07/04 14:03:34;;;;;;;1.10;1.10;;;21.20;99.90;;;;;;4952339;28;20453;-78
2021/07/04 14:06:47;;;;;;;1.30;1.10;;;21.30;99.90;;;;;;4959638;28;20872;-78
2021/07/04 14:15:57;;;;;;;1.30;1.20;;;21.50;99.90;;;;;;4948904;28;21028;-79
2021/07/04 14:22:29;;;;;;;1.10;0.93;;;21.60;99.90;;;;;;4952453;29;20179;-79
2021/07/04 14:25:54;;;;;;;1.50;1.40;;;21.70;99.90;;;;;;4948073;28;20975;-78
2021/07/04 14:28:56;;;;;;;0.87;0.87;;;21.80;99.90;;;;;;4871140;29;21030;-78
2021/07/04 14:39:02;;;;;;;0.90;0.90;;;22.40;99.90;;;;;;4971376;28;20438;-78
2021/07/04 14:45:50;;;;;;;1.30;1.20;;;22.60;99.90;;;;;;4991090;28;20416;-77
2021/07/04 14:52:09;;;;;;;1.60;1.50;;;22.70;99.90;;;;;;4983624;28;20503;-78
2021/07/04 14:55:50;;;;;;;1.57;1.40;;;22.80;99.90;;;;;;4974651;28;21095;-78
2021/07/04 14:58:28;;;;;;;0.80;0.80;;;22.90;99.90;;;;;;4951873;28;20474;-77
2021/07/04 15:05:30;;;;;;;1.73;1.47;;;23.10;99.90;;;;;;4984406;28;20468;-77
2021/07/04 15:07:56;;;;;;;1.60;1.50;;;23.10;99.90;;;;;;4957751;28;20470;-77
2021/07/04 15:22:19;;;;;;;2.70;2.50;;;23.30;99.90;;;;;;5041838;23;20547;-77
2021/07/04 15:28:58;;;;;;;2.10;2.00;;;23.30;99.90;;;;;;4936916;29;20985;-79
2021/07/04 15:31:37;;;;;;;1.80;1.70;;;23.40;99.90;;;;;;4999144;23;20578;-79
2021/07/04 15:34:25;;;;;;;1.30;1.20;;;23.40;99.90;;;;;;4995200;28;20436;-79
2021/07/04 15:41:12;;;;;;;1.63;1.53;;;23.50;99.90;;;;;;4999233;28;20463;-80
2021/07/04 15:43:53;;;;;;;1.90;1.80;;;23.40;99.90;;;;;;4993110;28;20933;-79
2021/07/04 15:46:23;;;;;;;1.60;1.50;;;23.50;99.90;;;;;;4953240;28;20441;-79
2021/07/04 15:49:14;;;;;;;1.53;1.43;;;23.50;99.90;;;;;;4952636;28;20432;-79
2021/07/04 15:52:21;;;;;;;1.67;1.57;;;23.50;99.90;;;;;;4989794;23;21591;-78
2021/07/04 15:55:13;;;;;;;1.63;1.53;;;23.50;99.90;;;;;;4979959;28;20448;-79
2021/07/04 15:58:35;;;;;;;1.87;1.60;;;23.60;99.90;;;;;;4945923;28;20462;-78
2021/07/04 16:01:09;;;;;;;2.23;1.83;;;23.60;99.90;;;;;;4956890;28;20470;-79
2021/07/04 16:03:38;;;;;;;1.60;1.50;;;23.60;99.90;;;;;;4968051;28;21792;-79
2021/07/04 16:10:15;;;;;;;1.60;1.50;;;23.60;99.90;;;;;;4788383;29;20527;-80
2021/07/04 16:16:12;;;;;;;1.27;1.20;;;23.60;99.90;;;;;;4814032;29;20976;-79
2021/07/04 16:18:50;;;;;;;1.40;1.30;;;23.60;99.90;;;;;;4824834;29;20461;-79
2021/07/04 16:21:22;;;;;;;1.30;1.30;;;23.60;99.90;;;;;;4899942;28;20449;-80
2021/07/04 16:23:48;;;;;;;1.67;1.40;;;23.60;99.90;;;;;;4979711;28;20533;-80
2021/07/04 16:26:32;;;;;;;1.33;1.23;;;23.70;99.90;;;;;;4964455;28;20523;-80
2021/07/04 16:29:44;;;;;;;1.37;1.27;;;23.70;99.90;;;;;;4973080;28;20201;-80
2021/07/04 16:32:28;;;;;;;1.00;1.00;;;23.60;99.90;;;;;;4950701;28;20481;-80
2021/07/04 16:34:54;;;;;;;2.10;1.10;;;23.70;99.90;;;;;;4939557;28;20433;-80
2021/07/04 16:37:46;;;;;;;4.63;1.37;;;23.70;99.90;;;;;;4970695;28;20285;-80
2021/07/04 16:40:20;;;;;;;1.93;1.83;;;23.60;99.90;;;;;;4979113;28;20227;-79
2021/07/04 16:42:57;;;;;;;1.90;1.60;;;23.50;99.90;;;;;;4960033;28;20470;-80
2021/07/04 16:45:25;;;;;;;1.60;1.50;;;23.50;99.90;;;;;;4997080;28;20445;-79
2021/07/04 16:48:34;;;;;;;1.30;1.20;;;23.50;99.90;;;;;;4962353;28;20490;-80
2021/07/04 16:51:04;;;;;;;1.60;1.50;;;23.50;99.90;;;;;;4899581;29;20507;-80
2021/07/04 16:53:39;;;;;;;1.10;1.00;;;23.50;99.90;;;;;;4900429;29;20493;-79
2021/07/04 16:56:10;;;;;;;1.00;1.00;;;23.50;99.90;;;;;;4904261;29;20498;-80
2021/07/04 16:59:21;;;;;;;;;;;;;;;;;;;;;
2021/07/04 17:02:12;;;;;;;1.53;1.40;;;23.50;99.90;;;;;;4969656;28;20507;-80
2021/07/04 17:04:38;;;;;;;1.17;1.07;;;23.30;99.90;;;;;;4952518;28;20449;-79
2021/07/04 17:07:18;;;;;;;0.80;0.80;;;23.20;99.90;;;;;;4934295;28;20769;-80
2021/07/04 17:09:44;;;;;;;2.23;1.10;;;23.20;99.90;;;;;;4955438;28;20958;-80
2021/07/04 17:12:28;;;;;;;1.00;0.97;;;23.10;99.90;;;;;;4977728;28;20462;-80
2021/07/04 17:15:11;;;;;;;0.90;0.90;;;23.10;99.90;;;;;;4959221;28;20217;-79
2021/07/04 17:18:34;;;;;;;1.00;1.00;;;23.20;99.90;;;;;;4940457;28;21402;-79
2021/07/04 17:21:00;;;;;;;0.73;0.73;;;23.20;99.90;;;;;;4927287;28;20560;-80
2021/07/04 17:27:01;;;;;;;0.80;0.80;;;23.20;99.90;;;;;;4939036;28;20460;-80
2021/07/04 17:29:39;;;;;;;0.90;0.90;;;23.20;99.90;;;;;;4924301;28;20556;-79
2021/07/04 17:32:07;;;;;;;0.80;0.80;;;23.20;99.90;;;;;;4928631;28;20461;-79
2021/07/04 17:34:36;;;;;;;0.80;0.80;;;23.20;99.90;;;;;;4955340;28;20456;-80
2021/07/04 17:37:49;;;;;;;0.77;0.77;;;23.20;99.90;;;;;;4925002;28;21092;-80
2021/07/04 17:40:31;;;;;;;0.60;0.60;;;23.20;99.90;;;;;;4961511;28;20476;-80
2021/07/04 17:43:26;;;;;;;0.77;0.77;;;23.20;99.90;;;;;;4959672;28;20830;-79
2021/07/04 17:45:58;;;;;;;1.90;0.90;;;23.10;99.90;;;;;;4937846;28;20495;-79
2021/07/04 17:48:47;;;;;;;2.13;0.80;;;23.10;99.90;;;;;;4944905;28;20468;-80
2021/07/04 17:51:54;;;;;;;1.17;1.07;;;23.10;99.90;;;;;;4955871;28;20584;-79
2021/07/04 17:54:22;;;;;;;1.30;1.20;;;23.00;99.90;;;;;;4974793;28;20533;-79
2021/07/04 17:57:11;;;;;;;0.80;0.80;;;23.00;99.90;;;;;;4963098;28;20457;-79
2021/07/04 18:00:45;;;;;;;0.60;0.60;;;23.00;99.90;;;;;;4979319;28;20471;-79
2021/07/04 18:03:13;;;;;;;0.90;0.80;;;23.00;99.90;;;;;;4904972;28;20839;-79
2021/07/04 18:09:44;;;;;;;0.70;0.70;;;23.00;99.90;;;;;;4977008;28;20463;-79
2021/07/04 18:16:03;;;;;;;1.10;1.00;;;23.00;99.90;;;;;;4958183;28;20509;-79
2021/07/04 18:18:37;;;;;;;0.87;0.83;;;23.00;99.90;;;;;;4962774;28;20497;-79
2021/07/04 18:21:04;;;;;;;1.10;1.00;;;22.90;99.90;;;;;;4969510;28;20499;-79
2021/07/04 18:27:51;;;;;;;0.83;0.83;;;22.90;99.90;;;;;;4992943;28;20483;-79
2021/07/04 18:33:31;;;;;;;1.07;0.90;;;22.90;99.90;;;;;;5000702;23;20595;-77
2021/07/04 18:36:35;;;;;;;1.10;1.00;;;22.80;99.90;;;;;;4969498;28;20471;-77
2021/07/04 18:39:24;;;;;;;1.10;1.03;;;22.80;99.90;;;;;;4951742;28;20928;-77
2021/07/04 18:41:50;;;;;;;0.90;0.90;;;22.70;99.90;;;;;;4953939;28;20462;-79
2021/07/04 18:44:16;;;;;;;0.97;0.97;;;22.70;99.90;;;;;;4951622;28;20449;-79
2021/07/04 18:46:50;;;;;;;1.00;0.90;;;22.70;99.90;;;;;;4945366;28;20228;-79
2021/07/04 18:49:31;;;;;;;1.17;1.07;;;22.70;99.90;;;;;;4950392;28;20220;-79
2021/07/04 18:52:00;;;;;;;1.50;0.90;;;22.70;99.90;;;;;;4945107;28;20461;-79
2021/07/04 18:55:14;;;;;;;1.43;0.90;;;22.80;99.90;;;;;;4932929;28;20483;-79
2021/07/04 18:58:03;;;;;;;1.00;0.90;;;22.80;99.90;;;;;;4919855;28;20483;-79
2021/07/04 19:01:17;;;;;;;;;;;;;;;;;;;;;
2021/07/04 19:04:13;;;;;;;1.00;1.00;;;22.80;99.90;;;;;;4925101;29;20427;-79
2021/07/04 19:14:54;;;;;;;1.40;1.30;;;22.70;99.90;;;;;;4920412;29;21018;-77
2021/07/04 19:17:44;;;;;;;1.20;1.10;;;22.70;99.90;;;;;;4886651;29;21161;-77
2021/07/04 19:20:32;;;;;;;;;;;;;;;;;;;;;
2021/07/04 19:23:43;;;;;;;1.30;1.20;;;22.60;99.90;;;;;;4915598;28;20476;-77
2021/07/04 19:26:16;;;;;;;1.30;1.20;;;22.50;99.90;;;;;;4939444;28;20454;-77
2021/07/04 19:29:57;;;;;;;1.30;1.20;;;22.40;99.90;;;;;;4914738;28;20468;-79
2021/07/04 19:32:25;;;;;;;1.00;1.00;;;22.40;99.90;;;;;;4865560;29;20520;-79
2021/07/04 19:35:08;;;;;;;1.23;1.13;;;22.40;99.90;;;;;;4892408;29;20525;-79
2021/07/04 19:37:40;;;;;;;1.40;1.30;;;22.50;99.90;;;;;;4899163;29;20599;-79
2021/07/04 19:40:32;;;;;;;1.93;1.50;;;22.40;99.90;;;;;;4925152;28;20468;-79
2021/07/04 19:43:39;;;;;;;1.43;1.03;;;22.40;99.90;;;;;;4942056;28;20891;-79
2021/07/04 19:46:16;;;;;;;1.10;1.00;;;22.20;99.90;;;;;;4930670;28;20483;-77
2021/07/04 19:48:53;;;;;;;2.50;1.20;;;22.10;99.90;;;;;;4878868;29;20579;-77
2021/07/04 19:52:12;;;;;;;1.00;1.00;;;22.00;99.90;;;;;;4878419;29;20527;-77
2021/07/04 19:55:18;;;;;;;1.97;1.17;;;21.90;99.90;;;;;;4862536;29;20479;-77
2021/07/04 19:57:45;;;;;;;1.53;1.43;;;21.90;99.90;;;;;;4933267;28;20498;-79
2021/07/04 20:00:24;;;;;;;1.60;1.50;;;21.90;99.90;;;;;;4981331;28;20490;-80
2021/07/04 20:02:52;;;;;;;4.23;1.40;;;21.80;99.90;;;;;;4927388;28;20446;-80
2021/07/04 20:05:42;;;;;;;2.10;1.17;;;21.70;99.90;;;;;;4911338;28;20462;-80
2021/07/04 20:08:10;;;;;;;1.90;1.37;;;21.60;99.90;;;;;;4916110;28;20523;-80
2021/07/04 20:10:47;;;;;;;1.80;1.43;;;21.60;99.90;;;;;;4975700;28;20474;-80
2021/07/04 20:13:31;;;;;;;1.43;1.33;;;21.50;99.90;;;;;;4962957;28;20819;-80
2021/07/04 20:16:06;;;;;;;1.70;1.60;;;21.40;99.90;;;;;;4953715;28;20489;-80
2021/07/04 20:18:39;;;;;;;1.27;1.17;;;21.30;99.90;;;;;;4952743;28;20458;-80
2021/07/04 20:21:11;;;;;;;1.50;1.40;;;21.20;99.90;;;;;;4957318;28;20509;-80
2021/07/04 20:28:02;;;;;;;1.53;1.43;;;21.10;99.90;;;;;;4897737;29;20496;-80
2021/07/04 20:31:11;;;;;;;1.27;1.13;;;20.90;99.90;;;;;;4875294;29;20651;-80
2021/07/04 20:34:18;;;;;;;1.80;1.30;;;20.80;99.90;;;;;;4901988;29;20557;-80
2021/07/04 20:37:57;;;;;;;1.13;1.07;;;20.80;99.90;;;;;;4891844;29;20481;-80
2021/07/04 20:40:22;;;;;;;1.30;1.30;;;20.70;99.90;;;;;;4864842;29;20463;-77
2021/07/04 20:43:38;;;;;;;1.53;1.43;;;20.60;99.90;;;;;;4878042;29;20869;-77
2021/07/04 20:46:29;;;;;;;1.30;1.20;;;20.50;99.90;;;;;;4926507;28;20211;-77
2021/07/04 20:49:44;;;;;;;2.17;1.40;;;20.40;99.90;;;;;;4961843;28;20736;-77
2021/07/04 20:52:29;;;;;;;2.03;1.20;;;20.40;99.90;;;;;;4945539;28;20462;-77
2021/07/04 20:55:39;;;;;;;1.47;1.37;;;20.40;99.90;;;;;;4896216;29;20462;-77
2021/07/04 20:58:09;;;;;;;1.63;1.50;;;20.30;99.90;;;;;;4925078;29;20459;-77
2021/07/04 21:04:24;;;;;;;1.73;1.40;;;20.20;99.90;;;;;;4909192;28;20852;-77
2021/07/04 21:07:44;;;;;;;1.47;1.37;;;20.10;99.90;;;;;;4888665;28;20596;-77
2021/07/04 21:10:13;;;;;;;1.50;1.40;;;20.10;99.90;;;;;;4864511;29;20446;-77
2021/07/04 21:12:47;;;;;;;1.60;1.50;;;20.00;99.90;;;;;;4884092;28;20435;-77
2021/07/04 21:15:16;;;;;;;2.33;1.67;;;20.00;99.90;;;;;;4935693;28;20441;-77